Etusivu
METAR-TAF:

METAR-TAF

Lentoasemat :

Comiso, Italia

Leveyspiiri: 36-59-30N, Pituuspiiri: 14-36-25E, korkeus merenpinnasta: 190 m

Tämänhetkinen sää

Tämä raportti tehtiin 46 minuuttia sitten, kello 17.50 UTC
Tuuli 10 kn lännestä
Lämpötila 19°C
Kosteus 68%
Ilmanpaine 1022 hPa
Näkyvyys 10 km tai enemmän
ei pilviä alle 1500 m:ssä eikä cumulonimbus-pilviä

METAR: LICB 281750Z 26010KT CAVOK 19/13 Q1022

Aika: 20:36 (18:36 UTC)

Sääennuste

Tämä raportti tehtiin 1 tunti ja 36 minuuttia sitten, kello 17.00 UTC
Ennuste voimassa 28. päivästä klo 18 UTC - 29. päivään klo 03 UTC
Tuuli 12 kn lännestä/lounaasta
Näkyvyys 10 km tai enemmän
ei pilviä alle 1500 m:ssä eikä cumulonimbus-pilviä

TAF: LICB 281700Z 2818/2903 25012KT CAVOK

Säähavainnot ja -ennusteet yli 4000 lentoasemalta (METAR- ja TAF-raportit).

Käytössä olevat sääasemat on merkitty karttaan keltaisilla ja punaisilla pisteillä.

Aseta hiiri pisteen päälle nähdäksesi sääaseman nimen.

Klikkaa sitten nähdäksesi säähavainnot ja -ennusteet.

Kartan vaihtaminen: klikkaa mustalla rastilla varustettuja vihreitä pisteitä, niin voit zoomata sisään; viivalla varustettua vihreää pistettä, niin voit zoomata ulos tai vihreitä nuolia, niin pääset viereisille kartoille.


METAR-TAF: